Henderson, NV (89009)

4:00 PM PST on February 12, 2016 (GMT -0800)
River Mountain Ridge | | Change Station
CLOSE
Current Station
Personal Weather Station
Location: Henderson, NV
Elevation: 1942 ft
Nearby Weather Stations

Elev 1942 ft 36.04 °N, 114.95 °W | Updated 11 minutes ago

Clear
Clear
74.5 °F
Feels Like 76 °F
N
0.9
Wind Variable Wind from North
Gusts 1.0 mph

Today
High -- | Low -- °F
--% Chance of Precip.
Yesterday
High -- | Low -- °F
Precip. -- in
Pressure 30.13 in
Visibility 10.0 miles
Clouds Clear
Heat Index 76 °F
Dew Point 34 °F
Humidity 23%
Rainfall 0.00 in
Snow Depth Not available.
6:30 AM 5:17 PM
Waxing Crescent, 25% visible
METAR KBVU 122355Z AUTO 03006KT 10SM CLR 22/M02 A3013 RMK AO2
Pressure 30.13 in
Visibility 10.0 miles
Clouds Clear
Heat Index 76 °F
Dew Point 34 °F
Humidity 23%
Rainfall 0.00 in
Snow Depth Not available.
6:30 AM 5:17 PM
Waxing Crescent, 25% visible
METAR KBVU 122355Z AUTO 03006KT 10SM CLR 22/M02 A3013 RMK AO2

10-Day Weather Forecast

Almanac

Astronomy

Feb. 12, 2016 Rise Set
Actual Time
Civil Twilight
Nautical Twilight
Astronomical Twilight
Moon
Length of Visible Light
Length of Day
Tomorrow will be .
, % of the Moon is Illuminated

Today's Extremes

State Highs State Lows

Community

WunderPhotos

Upload Photos

1,892,437 photos uploaded!

WunderBlog® & News

Nearby

Air Quality

  Air Quality AQ Index Pollutant
Not available.

Snow Depth

Station Depth Elevation

Earthquake Activity

City Distance Mag. Time & Date
Minimum magnitude displayed is 2.5.

Coastal Water Temperatures

Place Temperature

Stations

Nearby Weather Stations

Station Location Temp. Windchill Dew Point Humidity Wind Precip. Elev Updated Type
                   

Watches & Warnings

There are currently no watches in effect.